Time;durP1;ratioP1;P1;durP2;ratioP2;P2;SDS_P1;SDS_P2;PMS_P1;PMS_P2;Temp;Humidity;BMP_temperature;BMP_pressure;BME280_temperature;BME280_humidity;BME280_pressure;Samples;Min_cycle;Max_cycle;Signal;HPM_P1;HPM_P2
2023/06/15 00:02:20;;;;;;;7.20;3.28;;;;;;;19.15;65.62;100792.03;6325951;22;20007;-96
2023/06/15 00:04:45;;;;;;;6.43;3.85;;;;;;;18.97;65.97;100789.22;6328821;22;20023;-96
2023/06/15 00:07:11;;;;;;;8.82;3.58;;;;;;;18.74;67.39;100793.81;6323646;22;20009;-96
2023/06/15 00:09:36;;;;;;;9.38;3.95;;;;;;;18.83;66.98;100790.44;6327471;22;20008;-96
2023/06/15 00:12:02;;;;;;;7.85;3.83;;;;;;;18.95;65.76;100799.00;6224652;23;20009;-96
2023/06/15 00:14:28;;;;;;;6.85;4.15;;;;;;;18.67;66.36;100790.88;6328640;22;20031;-96
2023/06/15 00:16:54;;;;;;;4.90;3.58;;;;;;;18.67;66.75;100787.44;6335226;22;20016;-95
2023/06/15 00:19:20;;;;;;;5.75;3.65;;;;;;;18.74;66.21;100794.63;6328429;22;20004;-94
2023/06/15 00:21:48;;;;;;;8.48;3.47;;;;;;;18.67;66.41;100793.50;6321062;22;20385;-96
2023/06/15 00:24:17;;;;;;;6.85;3.78;;;;;;;18.60;66.58;100792.38;6320769;22;20004;-95
2023/06/15 00:26:46;;;;;;;5.60;3.67;;;;;;;18.58;65.91;100799.50;6319269;22;20012;-94
2023/06/15 00:29:13;;;;;;;7.00;4.05;;;;;;;18.37;66.25;100800.38;6322896;22;20009;-96
2023/06/15 00:31:39;;;;;;;5.22;4.07;;;;;;;18.40;64.22;100791.47;6333406;22;20431;-95
2023/06/15 00:34:05;;;;;;;7.32;3.90;;;;;;;18.11;66.02;100793.91;6332152;22;20061;-95
2023/06/15 00:36:31;;;;;;;9.43;3.67;;;;;;;18.08;67.26;100799.41;6324844;22;20000;-95
2023/06/15 00:38:56;;;;;;;5.38;4.00;;;;;;;18.16;66.34;100791.75;6319809;22;20008;-96
2023/06/15 00:41:21;;;;;;;5.90;3.67;;;;;;;17.97;66.86;100792.44;6319722;22;20005;-96
2023/06/15 00:43:47;;;;;;;7.40;4.05;;;;;;;17.95;66.15;100800.41;6320011;22;20145;-94
2023/06/15 00:46:13;;;;;;;6.43;4.47;;;;;;;17.85;66.79;100801.28;6321509;22;20004;-94
2023/06/15 00:48:39;;;;;;;6.63;4.38;;;;;;;17.75;67.45;100802.03;6319205;22;20348;-94
2023/06/15 00:51:07;;;;;;;9.02;4.53;;;;;;;17.69;67.34;100796.47;6321051;22;20004;-95
2023/06/15 00:53:33;;;;;;;8.32;4.10;;;;;;;17.62;67.32;100800.53;6320742;22;20030;-96
2023/06/15 00:55:59;;;;;;;13.88;5.10;;;;;;;17.58;67.62;100809.56;6320028;22;20388;-95
2023/06/15 00:58:25;;;;;;;5.72;4.10;;;;;;;17.59;67.34;100812.06;6320514;22;20001;-96
2023/06/15 01:00:53;;;;;;;4.97;3.75;;;;;;;17.40;67.11;100812.72;6322971;22;20020;-96
2023/06/15 01:03:20;;;;;;;6.45;4.18;;;;;;;17.39;67.99;100813.66;6324695;22;20016;-96
2023/06/15 01:05:52;;;;;;;6.85;4.35;;;;;;;17.53;65.97;100818.63;6325406;22;20031;-96
2023/06/15 01:08:20;;;;;;;8.07;4.75;;;;;;;17.40;66.87;100819.72;6323997;22;20005;-96
2023/06/15 01:10:47;;;;;;;6.63;4.28;;;;;;;17.29;67.99;100821.41;6325033;22;20016;-96
2023/06/15 01:13:14;;;;;;;7.82;4.00;;;;;;;17.09;68.21;100827.34;6326208;22;20026;-94
2023/06/15 01:15:40;;;;;;;7.90;5.13;;;;;;;17.13;69.05;100825.34;6328104;22;19997;-95
2023/06/15 01:18:07;;;;;;;11.10;4.35;;;;;;;17.17;70.40;100822.38;6325637;22;20484;-95
2023/06/15 01:20:40;;;;;;;13.38;4.20;;;;;;;17.16;71.77;100836.34;6322012;22;20000;-96
2023/06/15 01:23:40;;;;;;;7.00;4.20;;;;;;;17.16;72.55;100835.53;6319902;22;20008;-96
2023/06/15 01:26:07;;;;;;;5.45;3.95;;;;;;;17.07;73.61;100848.34;6322832;22;20058;-94
2023/06/15 01:28:40;;;;;;;8.38;4.35;;;;;;;16.99;74.14;100845.50;6319856;22;20161;-95
2023/06/15 01:31:07;;;;;;;6.20;4.13;;;;;;;17.11;73.36;100844.53;6318871;22;20012;-95
2023/06/15 01:33:32;;;;;;;6.20;3.90;;;;;;;17.05;73.88;100839.00;6318513;22;20011;-96
2023/06/15 01:36:00;;;;;;;9.85;4.70;;;;;;;17.06;74.30;100841.47;6319390;22;20087;-95
2023/06/15 01:38:28;;;;;;;8.40;4.25;;;;;;;17.11;74.41;100844.53;6317852;22;20009;-95
2023/06/15 01:40:56;;;;;;;8.88;4.15;;;;;;;17.06;74.36;100835.44;6316331;22;20011;-92
2023/06/15 01:43:25;;;;;;;10.05;4.85;;;;;;;17.07;73.83;100839.72;6317819;22;20461;-96
2023/06/15 01:45:52;;;;;;;6.85;4.47;;;;;;;17.05;73.92;100839.81;6317627;22;20257;-95
2023/06/15 01:48:19;;;;;;;8.13;4.93;;;;;;;17.00;73.21;100835.91;6318294;22;20015;-95
2023/06/15 01:50:45;;;;;;;15.38;4.75;;;;;;;16.92;72.81;100839.09;6317417;22;20384;-96
2023/06/15 01:53:10;;;;;;;9.07;5.07;;;;;;;16.95;70.55;100833.66;6317174;22;19993;-96
2023/06/15 01:55:36;;;;;;;11.13;6.88;;;;;;;16.90;70.30;100830.59;6317155;22;20036;-95
2023/06/15 01:58:01;;;;;;;12.82;5.72;;;;;;;16.77;70.55;100824.63;6316842;22;20005;-95
2023/06/15 02:00:27;;;;;;;11.30;5.93;;;;;;;16.78;71.29;100828.91;6317423;22;20008;-93
2023/06/15 02:02:53;;;;;;;11.40;5.38;;;;;;;16.67;70.42;100838.34;6317060;22;20009;-95
2023/06/15 02:05:18;;;;;;;8.98;5.75;;;;;;;16.74;69.74;100840.50;6317165;22;20001;-95
2023/06/15 02:07:44;;;;;;;9.38;5.07;;;;;;;16.71;68.86;100840.75;6317188;22;20004;-93
2023/06/15 02:10:10;;;;;;;6.43;5.07;;;;;;;16.70;68.53;100842.50;6316248;22;20016;-95
2023/06/15 02:12:36;;;;;;;9.80;5.82;;;;;;;16.59;68.48;100839.91;6316860;22;20427;-92
2023/06/15 02:15:02;;;;;;;7.65;5.90;;;;;;;16.59;66.37;100851.16;6317642;22;20015;-96
2023/06/15 02:17:39;;;;;;;7.93;5.80;;;;;;;16.44;66.42;100844.50;6316284;22;20058;-94
2023/06/15 02:20:07;;;;;;;11.38;5.63;;;;;;;16.41;66.07;100849.94;6318306;22;20001;-94
2023/06/15 02:22:33;;;;;;;8.63;5.35;;;;;;;16.25;66.01;100851.09;6318912;22;20009;-96
2023/06/15 02:24:58;;;;;;;8.90;6.15;;;;;;;16.23;65.87;100849.56;6319397;22;20367;-96
2023/06/15 02:27:23;;;;;;;7.78;5.45;;;;;;;16.24;65.15;100853.81;6318963;22;20008;-95
2023/06/15 02:29:49;;;;;;;8.02;5.63;;;;;;;16.09;65.51;100845.34;6318719;22;20005;-95
2023/06/15 02:32:36;;;;;;;9.00;5.22;;;;;;;16.13;66.25;100853.78;6318979;22;20395;-95
2023/06/15 02:35:06;;;;;;;7.72;5.40;;;;;;;16.10;65.18;100852.25;6318630;22;20004;-95
2023/06/15 02:37:32;;;;;;;11.20;6.03;;;;;;;16.17;64.05;100858.66;6319689;22;20004;-95
2023/06/15 02:39:58;;;;;;;10.32;5.45;;;;;;;15.98;64.84;100856.56;6318180;22;20001;-95
2023/06/15 02:42:23;;;;;;;10.00;5.43;;;;;;;16.01;65.16;100858.13;6319225;22;20008;-95
2023/06/15 02:44:49;;;;;;;8.00;5.88;;;;;;;15.88;66.91;100857.38;6319046;22;20424;-94
2023/06/15 02:47:14;;;;;;;10.30;5.40;;;;;;;15.87;67.40;100859.13;6319184;22;20009;-96
2023/06/15 02:49:40;;;;;;;12.45;6.40;;;;;;;15.82;68.79;100853.44;6320402;22;20005;-96
2023/06/15 02:52:05;;;;;;;8.23;6.05;;;;;;;15.78;69.99;100857.22;6320619;22;20004;-96
2023/06/15 02:54:31;;;;;;;10.13;5.32;;;;;;;15.79;70.14;100853.66;6320930;22;20000;-95
2023/06/15 02:56:57;;;;;;;8.73;5.65;;;;;;;15.76;70.51;100854.72;6321618;22;20036;-96
2023/06/15 02:59:25;;;;;;;9.63;5.50;;;;;;;15.70;71.12;100849.94;6323510;22;20087;-96
2023/06/15 03:01:53;;;;;;;7.75;6.90;;;;;;;15.62;70.99;100850.47;6321964;22;20029;-96
2023/06/15 03:04:22;;;;;;;7.63;5.47;;;;;;;15.53;72.14;100847.69;6322484;22;20005;-95
2023/06/15 03:06:50;;;;;;;12.15;6.15;;;;;;;15.65;70.76;100846.81;6320928;22;20039;-96
2023/06/15 03:09:20;;;;;;;8.13;5.90;;;;;;;15.58;70.56;100853.38;6320404;22;20070;-96
2023/06/15 03:11:46;;;;;;;10.23;6.38;;;;;;;15.50;71.02;100847.91;6324082;22;20033;-96
2023/06/15 03:14:12;;;;;;;10.68;6.50;;;;;;;15.67;69.62;100855.34;6324142;22;19997;-96
2023/06/15 03:16:46;;;;;;;9.85;6.22;;;;;;;15.59;70.58;100852.47;6336520;22;20005;-96
2023/06/15 03:19:13;;;;;;;11.40;7.35;;;;;;;15.47;71.13;100848.16;6334447;22;20439;-95
2023/06/15 03:21:39;;;;;;;13.80;7.65;;;;;;;15.47;68.71;100853.34;6338201;22;20013;-96
2023/06/15 03:24:08;;;;;;;9.75;7.45;;;;;;;15.51;68.70;100845.22;6338467;22;20012;-96
2023/06/15 03:26:38;;;;;;;10.27;6.80;;;;;;;15.51;67.07;100849.56;6340407;22;20001;-96
2023/06/15 03:29:04;;;;;;;8.43;6.28;;;;;;;15.51;68.11;100849.56;6341250;22;20019;-95
2023/06/15 03:31:33;;;;;;;12.25;7.80;;;;;;;15.49;68.75;100846.28;6327978;22;20062;-96
2023/06/15 03:34:02;;;;;;;10.43;7.38;;;;;;;15.70;66.59;100860.34;6335807;22;20039;-95
2023/06/15 03:36:31;;;;;;;8.10;6.82;;;;;;;15.81;66.09;100862.19;6338323;22;20009;-96
2023/06/15 03:38:57;;;;;;;10.18;6.43;;;;;;;15.64;66.98;100852.97;6337980;22;20008;-96
2023/06/15 03:41:31;;;;;;;8.98;6.93;;;;;;;15.52;68.10;100854.66;6334984;22;20004;-96
2023/06/15 03:44:03;;;;;;;10.88;6.43;;;;;;;15.56;67.69;100858.72;6339931;22;19989;-96
2023/06/15 03:46:28;;;;;;;;;;;;;;;15.61;66.53;100855.78;6331667;22;20024;-95
2023/06/15 03:48:55;;;;;;;10.15;5.93;;;;;;;15.72;64.51;100862.84;6335049;22;19929;-96
2023/06/15 03:51:20;;;;;;;9.65;5.97;;;;;;;15.65;63.23;100856.38;6333490;22;20016;-94
2023/06/15 03:53:46;;;;;;;7.50;5.78;;;;;;;15.60;65.27;100851.50;6335175;22;20012;-96
2023/06/15 03:56:12;;;;;;;9.15;5.55;;;;;;;15.58;66.23;100861.19;6337042;22;20009;-96
2023/06/15 03:58:38;;;;;;;6.38;5.32;;;;;;;15.53;67.29;100858.09;6334262;22;20016;-96
2023/06/15 04:01:07;;;;;;;11.13;6.15;;;;;;;15.59;64.42;100862.88;6330920;22;20009;-96
2023/06/15 04:03:36;;;;;;;6.07;5.00;;;;;;;15.62;64.45;100862.66;6328052;22;20065;-96
2023/06/15 04:06:06;;;;;;;8.13;5.45;;;;;;;15.76;64.83;100870.31;6331647;22;20008;-96
2023/06/15 04:08:33;;;;;;;9.35;5.32;;;;;;;15.74;64.42;100867.00;6331584;22;20013;-96
2023/06/15 04:10:59;;;;;;;10.10;5.30;;;;;;;15.74;65.32;100863.56;6328555;22;20320;-96
2023/06/15 04:13:25;;;;;;;5.82;4.47;;;;;;;15.63;65.70;100870.34;6325908;22;20009;-96
2023/06/15 04:15:52;;;;;;;7.43;5.07;;;;;;;15.59;66.10;100883.69;6330212;22;20004;-96
2023/06/15 04:18:18;;;;;;;8.82;5.72;;;;;;;15.55;66.28;100866.63;6331820;22;20011;-96
2023/06/15 04:20:44;;;;;;;6.88;5.22;;;;;;;15.56;66.61;100878.72;6310374;22;20013;-96
2023/06/15 04:23:10;;;;;;;7.63;4.45;;;;;;;15.52;66.96;100872.88;6339086;22;20001;-96
2023/06/15 04:25:40;;;;;;;11.10;4.80;;;;;;;15.46;67.09;100872.47;6232099;22;19989;-95
2023/06/15 04:28:24;;;;;;;10.15;5.05;;;;;;;15.39;67.97;100875.53;6320837;22;19997;-96
2023/06/15 04:31:06;;;;;;;8.02;5.28;;;;;;;15.36;68.09;100880.97;6336940;22;20016;-96
2023/06/15 04:33:32;;;;;;;8.02;5.20;;;;;;;15.31;68.50;100880.41;6341626;22;20012;-96
2023/06/15 04:36:03;;;;;;;10.65;5.15;;;;;;;15.39;69.03;100882.50;6232844;22;20042;-96
2023/06/15 04:38:29;;;;;;;6.25;4.90;;;;;;;15.50;69.14;100885.16;6221813;23;20024;-96
2023/06/15 04:40:56;;;;;;;9.45;4.70;;;;;;;15.53;69.49;100881.50;6221007;22;20001;-94
2023/06/15 04:43:22;;;;;;;6.40;4.85;;;;;;;15.64;68.41;100886.78;6328845;22;20427;-96
2023/06/15 04:45:47;;;;;;;7.80;4.75;;;;;;;15.73;67.27;100887.94;6330109;22;20072;-94
2023/06/15 04:48:13;;;;;;;7.60;4.80;;;;;;;15.76;66.96;100891.16;6323527;22;20040;-96
2023/06/15 04:50:38;;;;;;;6.82;5.18;;;;;;;15.77;69.02;100887.59;6321035;22;20392;-94
2023/06/15 04:53:04;;;;;;;8.70;4.75;;;;;;;15.77;68.72;100895.41;6323695;22;20012;-96
2023/06/15 04:55:30;;;;;;;6.30;4.20;;;;;;;15.86;69.33;100887.88;6322708;22;20091;-96
2023/06/15 04:57:55;;;;;;;6.93;4.75;;;;;;;15.89;67.98;100900.66;6323384;22;20040;-96
2023/06/15 05:00:21;;;;;;;5.40;4.40;;;;;;;15.98;68.61;100898.22;6322829;22;20027;-94
2023/06/15 05:02:46;;;;;;;7.95;4.43;;;;;;;16.03;68.02;100906.53;6331399;22;20431;-96
2023/06/15 05:05:12;;;;;;;6.05;4.28;;;;;;;16.09;68.25;100902.63;6327731;22;20011;-96
2023/06/15 05:07:38;;;;;;;6.32;4.40;;;;;;;16.19;68.59;100906.25;6329388;22;20011;-96
2023/06/15 05:10:04;;;;;;;6.47;4.68;;;;;;;16.20;69.07;100915.72;6335453;22;20004;-95
2023/06/15 05:12:30;;;;;;;6.90;4.25;;;;;;;16.27;69.21;100916.09;6334942;22;20009;-96
2023/06/15 05:14:56;;;;;;;6.00;4.35;;;;;;;16.33;69.61;100917.41;6331752;22;20024;-96
2023/06/15 05:17:22;;;;;;;7.30;4.95;;;;;;;16.32;69.74;100916.59;6327334;22;20013;-96
2023/06/15 05:19:48;;;;;;;7.90;4.70;;;;;;;16.36;70.03;100925.00;6331427;22;20064;-94
2023/06/15 05:22:13;;;;;;;15.82;4.80;;;;;;;16.46;71.15;100926.00;6323202;22;20089;-95
2023/06/15 05:24:39;;;;;;;8.10;4.75;;;;;;;16.56;71.41;100926.97;6325855;22;20027;-96
2023/06/15 05:27:05;;;;;;;5.03;4.45;;;;;;;16.56;71.23;100923.53;6328800;22;20015;-94
2023/06/15 05:29:32;;;;;;;4.88;4.35;;;;;;;16.54;71.19;100913.22;6328955;22;20058;-96
2023/06/15 05:31:59;;;;;;;7.25;4.40;;;;;;;16.67;71.42;100920.94;6332373;22;20003;-95
2023/06/15 05:34:26;;;;;;;6.35;3.75;;;;;;;16.73;70.06;100917.03;6328185;22;20334;-95
2023/06/15 05:37:04;;;;;;;6.85;3.80;;;;;;;16.87;67.69;100925.53;6339787;22;20062;-95
2023/06/15 05:39:31;;;;;;;6.10;4.30;;;;;;;16.87;68.91;100924.66;6222456;22;20060;-95
2023/06/15 05:41:56;;;;;;;5.28;3.47;;;;;;;16.94;68.92;100918.03;6328749;22;20008;-96
2023/06/15 05:44:22;;;;;;;9.90;4.15;;;;;;;16.95;69.55;100921.47;6329610;22;20009;-96
2023/06/15 05:46:47;;;;;;;9.48;4.45;;;;;;;16.98;69.71;100916.88;6333860;22;20091;-95
2023/06/15 05:49:14;;;;;;;6.05;4.35;;;;;;;16.94;70.22;100925.03;6341062;22;20013;-96
2023/06/15 05:51:40;;;;;;;4.20;3.80;;;;;;;17.05;68.96;100928.50;6336904;22;20148;-96
2023/06/15 05:54:08;;;;;;;7.78;4.13;;;;;;;17.13;69.77;100919.25;6334489;22;20008;-96
2023/06/15 05:56:35;;;;;;;6.95;4.20;;;;;;;17.28;65.64;100923.25;6329364;22;20050;-96
2023/06/15 05:59:00;;;;;;;5.78;3.83;;;;;;;17.44;64.14;100925.50;6322021;22;20335;-94
2023/06/15 06:01:26;;;;;;;7.45;4.20;;;;;;;17.52;64.77;100921.34;6324622;22;20011;-96
2023/06/15 06:03:51;;;;;;;6.47;4.10;;;;;;;17.63;66.25;100924.88;6327741;22;20034;-96
2023/06/15 06:06:17;;;;;;;6.07;4.43;;;;;;;17.80;65.65;100937.47;6291393;22;20012;-94
2023/06/15 06:08:42;;;;;;;8.77;5.10;;;;;;;17.99;64.82;100926.34;6290490;22;20012;-96
2023/06/15 06:11:09;;;;;;;6.60;4.38;;;;;;;18.96;61.94;100929.66;6289831;22;20036;-96
2023/06/15 06:13:35;;;;;;;4.57;4.00;;;;;;;20.34;57.70;100931.59;6287395;22;20028;-96
2023/06/15 06:16:01;;;;;;;7.30;4.45;;;;;;;21.84;52.72;100942.97;6286268;22;20037;-96
2023/06/15 06:18:27;;;;;;;7.97;4.20;;;;;;;23.21;50.22;100945.94;6287297;22;20036;-96
2023/06/15 06:20:53;;;;;;;6.20;4.07;;;;;;;24.32;47.26;100943.06;6291062;22;20455;-96
2023/06/15 06:23:18;;;;;;;9.25;3.90;;;;;;;25.19;44.46;100946.75;6299574;22;20009;-96
2023/06/15 06:25:51;;;;;;;5.63;3.83;;;;;;;26.31;41.88;100941.06;6309264;22;20029;-96
2023/06/15 06:28:16;;;;;;;6.03;3.50;;;;;;;26.96;39.46;100938.81;6302348;22;20020;-96
2023/06/15 06:30:42;;;;;;;9.30;3.60;;;;;;;27.79;37.48;100945.50;6303290;22;20010;-96
2023/06/15 06:33:10;;;;;;;8.73;4.35;;;;;;;28.54;35.56;100960.09;6306527;22;20009;-96
2023/06/15 06:38:03;;;;;;;10.27;4.85;;;;;;;27.95;35.95;100955.09;6141514;22;20433;-96
2023/06/15 06:40:29;;;;;;;14.43;4.88;;;;;;;29.02;34.80;100952.19;6223725;22;20077;-96
2023/06/15 06:42:55;;;;;;;7.25;3.85;;;;;;;29.33;34.92;100956.22;6220870;23;20118;-96
2023/06/15 06:45:21;;;;;;;7.35;4.32;;;;;;;29.86;35.14;100959.06;6222709;23;20439;-96
2023/06/15 06:47:46;;;;;;;10.10;5.15;;;;;;;30.78;32.84;100951.25;6220527;23;20006;-96
2023/06/15 06:50:11;;;;;;;6.60;4.32;;;;;;;30.91;32.72;100958.41;6218188;22;20076;-95
2023/06/15 06:52:37;;;;;;;7.07;4.32;;;;;;;31.11;32.42;100956.50;6219055;23;20006;-96
2023/06/15 06:55:03;;;;;;;9.88;4.18;;;;;;;31.50;31.81;100962.69;6116848;23;20322;-95
2023/06/15 06:57:30;;;;;;;5.57;3.85;;;;;;;31.04;32.19;100960.22;6218238;23;20060;-95
2023/06/15 06:59:55;;;;;;;6.78;4.07;;;;;;;31.67;31.78;100968.34;6218393;22;20006;-96
2023/06/15 07:02:21;;;;;;;7.53;3.92;;;;;;;31.26;32.85;100964.25;6217377;23;20006;-96
2023/06/15 07:04:46;;;;;;;7.43;3.97;;;;;;;32.35;30.66;100964.19;6219852;23;20576;-95
2023/06/15 07:07:11;;;;;;;16.48;5.00;;;;;;;32.51;29.40;100952.16;6124625;23;20005;-95
2023/06/15 07:09:38;;;;;;;7.65;3.83;;;;;;;32.49;30.30;100962.22;6217658;22;20022;-95
2023/06/15 07:12:04;;;;;;;7.80;3.97;;;;;;;31.84;30.13;100962.50;6219075;23;20121;-96
2023/06/15 07:14:30;;;;;;;8.50;4.03;;;;;;;32.00;30.75;100962.00;6219571;23;20426;-96
2023/06/15 07:16:55;;;;;;;6.13;3.10;;;;;;;31.97;29.67;100952.59;6220133;23;20026;-96
2023/06/15 07:19:21;;;;;;;7.43;3.22;;;;;;;31.75;30.22;100957.44;6218940;23;20017;-96
2023/06/15 07:21:47;;;;;;;8.07;3.83;;;;;;;31.64;29.51;100951.97;6219467;23;20006;-96
2023/06/15 07:24:13;;;;;;;6.28;3.33;;;;;;;31.85;28.94;100962.31;6219497;23;20476;-94
2023/06/15 07:26:38;;;;;;;5.57;3.08;;;;;;;31.86;28.95;100955.09;6218256;23;20151;-94
2023/06/15 07:29:03;;;;;;;6.18;2.47;;;;;;;31.69;30.02;100958.28;6116508;23;20432;-95
2023/06/15 07:31:29;;;;;;;10.35;2.45;;;;;;;31.68;29.50;100964.66;6219715;23;20025;-96
2023/06/15 07:33:54;;;;;;;11.00;2.70;;;;;;;31.23;30.18;100958.50;6223693;23;20064;-96
2023/06/15 07:36:23;;;;;;;9.05;2.25;;;;;;;31.20;29.17;100958.94;6245427;22;20020;-95
2023/06/15 07:38:52;;;;;;;8.90;2.60;;;;;;;31.11;30.36;100955.69;6265322;22;20010;-96
2023/06/15 07:41:18;;;;;;;4.18;2.03;;;;;;;31.39;29.13;100957.22;6268828;22;20013;-96
2023/06/15 07:43:57;;;;;;;3.83;2.45;;;;;;;30.86;29.77;100960.91;6254954;22;20015;-96
2023/06/15 07:46:24;;;;;;;3.15;1.90;;;;;;;30.53;30.41;100961.75;6275136;22;20025;-96
2023/06/15 07:48:50;;;;;;;4.30;2.92;;;;;;;29.63;30.65;100964.72;6263433;22;20014;-96
2023/06/15 07:51:20;;;;;;;5.32;2.00;;;;;;;30.22;30.56;100968.50;6273320;22;20016;-96
2023/06/15 07:53:48;;;;;;;6.67;2.83;;;;;;;30.15;30.99;100966.88;6242631;22;20006;-96
2023/06/15 08:01:29;;;;;;;3.03;2.15;;;;;;;30.12;31.87;100968.09;6126418;22;20025;-96
2023/06/15 08:03:55;;;;;;;6.97;2.40;;;;;;;29.52;31.50;100959.16;6228055;22;20079;-96
2023/06/15 08:06:21;;;;;;;4.05;2.13;;;;;;;29.77;31.34;100965.59;6137133;22;20002;-95
2023/06/15 08:08:46;;;;;;;7.20;2.15;;;;;;;30.21;30.26;100961.53;6228735;23;20033;-96
2023/06/15 08:11:13;;;;;;;6.63;2.03;;;;;;;30.65;30.63;100968.09;6232317;23;20107;-96
2023/06/15 08:13:38;;;;;;;4.47;2.10;;;;;;;30.54;30.07;100966.06;6222887;23;20379;-96
2023/06/15 08:16:05;;;;;;;6.22;1.90;;;;;;;29.71;32.97;100961.09;6229904;22;20014;-94
2023/06/15 08:18:36;;;;;;;5.57;1.92;;;;;;;29.40;30.84;100970.38;6233993;23;20037;-96
2023/06/15 08:21:03;;;;;;;4.88;1.77;;;;;;;29.85;31.63;100967.25;6133329;22;20386;-96
2023/06/15 08:26:03;;;;;;;4.63;1.67;;;;;;;29.77;30.44;100962.94;6129267;22;20024;-96
2023/06/15 08:28:28;;;;;;;10.00;2.25;;;;;;;29.75;31.88;100961.50;6233588;23;20041;-96
2023/06/15 08:30:58;;;;;;;6.45;2.20;;;;;;;30.14;31.41;100966.06;6231588;22;20429;-96
2023/06/15 08:33:24;;;;;;;9.52;1.83;;;;;;;30.16;29.99;100969.31;6244761;23;20006;-96
2023/06/15 08:35:51;;;;;;;3.40;1.65;;;;;;;31.04;30.14;100955.69;6240744;23;19998;-96
2023/06/15 08:38:16;;;;;;;1.92;1.63;;;;;;;31.24;30.69;100960.13;6131834;22;20318;-96
2023/06/15 08:40:42;;;;;;;4.53;1.70;;;;;;;30.77;31.45;100956.78;6233778;22;20010;-96
2023/06/15 08:43:09;;;;;;;5.93;2.47;;;;;;;30.97;30.51;100962.09;6233907;22;20027;-96
2023/06/15 08:45:40;;;;;;;2.80;1.75;;;;;;;31.73;29.24;100956.84;6232424;23;20101;-96
2023/06/15 08:48:07;;;;;;;3.22;1.55;;;;;;;31.87;29.82;100956.72;6122108;23;20010;-96
2023/06/15 08:50:36;;;;;;;9.95;1.80;;;;;;;31.91;28.35;100956.09;6222714;22;20300;-94
2023/06/15 08:53:02;;;;;;;5.00;1.58;;;;;;;31.77;26.96;100962.53;6220773;23;20430;-96
2023/06/15 08:55:28;;;;;;;2.17;1.15;;;;;;;31.87;26.07;100959.41;6229715;23;20010;-96
2023/06/15 08:57:53;;;;;;;4.45;1.55;;;;;;;31.74;26.54;100960.31;6223987;23;20060;-96
2023/06/15 09:00:19;;;;;;;3.05;1.95;;;;;;;32.03;25.40;100963.44;6223958;22;20524;-96
2023/06/15 09:02:46;;;;;;;8.30;1.83;;;;;;;32.18;26.65;100967.41;6220094;23;20085;-96
2023/06/15 09:05:12;;;;;;;7.72;1.60;;;;;;;30.82;27.58;100967.63;6223544;23;20037;-94
2023/06/15 09:07:38;;;;;;;3.45;1.80;;;;;;;31.56;27.50;100964.53;6223555;23;20010;-94
2023/06/15 09:10:17;;;;;;;4.88;2.17;;;;;;;32.12;27.29;100962.13;6221739;22;20497;-96
2023/06/15 09:12:51;;;;;;;6.80;1.92;;;;;;;31.28;26.87;100951.50;6223027;23;20005;-96
2023/06/15 09:15:21;;;;;;;7.95;2.20;;;;;;;31.36;26.63;100953.13;6224700;23;20002;-96
2023/06/15 09:17:54;;;;;;;6.43;1.95;;;;;;;32.37;26.50;100954.91;6120356;23;20463;-96
2023/06/15 09:20:21;;;;;;;6.63;1.70;;;;;;;32.78;26.07;100955.38;6221357;22;20034;-96
2023/06/15 09:22:47;;;;;;;6.50;2.60;;;;;;;32.21;27.11;100942.09;6220953;23;20100;-96
2023/06/15 09:25:14;;;;;;;8.85;3.35;;;;;;;32.37;27.01;100954.91;6220650;23;20045;-96
2023/06/15 09:27:40;;;;;;;9.75;2.33;;;;;;;32.38;27.05;100956.56;6219935;23;20029;-96
2023/06/15 09:30:07;;;;;;;10.40;2.47;;;;;;;32.93;26.34;100957.66;6246259;22;20006;-96
2023/06/15 09:32:32;;;;;;;5.40;2.00;;;;;;;31.57;26.89;100957.34;6118903;23;20047;-96
2023/06/15 09:34:59;;;;;;;4.22;1.90;;;;;;;31.92;27.31;100957.72;6118751;23;20073;-96
2023/06/15 09:37:25;;;;;;;4.57;1.73;;;;;;;32.35;27.04;100953.50;6221339;23;20010;-95
2023/06/15 09:39:52;;;;;;;5.25;1.63;;;;;;;32.12;27.64;100956.78;6224623;22;20076;-96
2023/06/15 09:42:18;;;;;;;4.47;1.80;;;;;;;33.23;26.83;100955.84;6231274;23;20069;-96
2023/06/15 09:44:43;;;;;;;8.27;2.10;;;;;;;33.08;26.77;100959.97;6228025;23;20440;-96
2023/06/15 09:47:17;;;;;;;5.30;1.65;;;;;;;33.83;27.11;100956.91;6226613;23;20028;-96
2023/06/15 09:49:44;;;;;;;4.72;1.83;;;;;;;33.73;25.71;100956.66;6226546;22;20083;-96
2023/06/15 09:52:13;;;;;;;7.22;2.40;;;;;;;33.71;25.56;100964.09;6224656;23;20016;-96
2023/06/15 09:54:39;;;;;;;3.45;1.58;;;;;;;33.72;25.58;100958.50;6225148;23;20318;-96
2023/06/15 09:57:06;;;;;;;5.93;1.77;;;;;;;34.29;24.52;100966.09;6225169;23;20006;-96
2023/06/15 09:59:32;;;;;;;3.83;1.75;;;;;;;33.95;25.04;100948.91;6223698;22;20029;-96
2023/06/15 10:01:59;;;;;;;5.93;1.88;;;;;;;34.01;25.08;100956.81;6231309;23;20010;-96
2023/06/15 10:04:29;;;;;;;4.30;1.83;;;;;;;34.23;24.76;100959.78;6224591;23;20010;-95
2023/06/15 10:07:02;;;;;;;5.25;1.70;;;;;;;34.20;24.53;100962.94;6120652;23;20093;-96
2023/06/15 10:09:35;;;;;;;8.63;1.80;;;;;;;34.40;24.61;100962.56;6222024;22;20437;-96
2023/06/15 10:12:18;;;;;;;19.05;2.78;;;;;;;33.85;25.10;100960.19;6222491;23;20008;-96
2023/06/15 10:15:15;;;;;;;5.18;2.00;;;;;;;34.45;25.07;100965.34;6222651;23;20002;-96
2023/06/15 10:17:46;;;;;;;2.40;1.58;;;;;;;34.94;23.44;100962.41;6221890;23;20010;-96
2023/06/15 10:20:16;;;;;;;11.32;2.10;;;;;;;34.68;23.82;100963.75;6221141;22;20009;-96
2023/06/15 10:23:07;;;;;;;3.90;2.00;;;;;;;34.39;23.82;100960.94;6227095;22;20037;-96
2023/06/15 10:25:33;;;;;;;4.63;1.70;;;;;;;34.17;24.02;100958.03;6221906;23;20014;-96
2023/06/15 10:28:09;;;;;;;4.32;1.85;;;;;;;34.09;24.06;100961.88;6222885;23;20097;-96
2023/06/15 10:30:44;;;;;;;5.25;2.00;;;;;;;33.90;25.03;100957.63;6224249;22;20006;-96
2023/06/15 10:33:21;;;;;;;4.25;1.75;;;;;;;34.21;24.27;100967.22;6228427;23;20010;-96
2023/06/15 10:36:05;;;;;;;6.03;1.73;;;;;;;34.49;23.75;100961.16;6234540;23;20083;-96
2023/06/15 10:38:51;;;;;;;4.68;1.83;;;;;;;34.48;23.88;100966.75;6231141;23;20042;-96
2023/06/15 10:41:17;;;;;;;10.88;2.25;;;;;;;34.59;23.24;100959.78;6227978;23;20033;-96
2023/06/15 10:43:59;;;;;;;22.75;3.42;;;;;;;34.87;25.27;100962.56;6232522;23;20474;-96
2023/06/15 10:46:34;;;;;;;10.18;2.40;;;;;;;34.69;24.92;100970.75;6239918;23;20042;-96
2023/06/15 10:49:08;;;;;;;7.68;2.10;;;;;;;34.14;25.53;100960.34;6218865;23;20012;-96
2023/06/15 10:51:54;;;;;;;8.65;2.72;;;;;;;35.25;24.30;100963.84;6232210;23;20006;-96
2023/06/15 10:57:00;;;;;;;6.88;1.88;;;;;;;34.62;24.08;100962.81;6146238;23;20032;-96
2023/06/15 10:59:39;;;;;;;4.72;1.88;;;;;;;33.96;24.98;100956.69;6118164;23;19998;-96
2023/06/15 11:02:26;;;;;;;6.50;2.20;;;;;;;34.17;24.06;100957.22;6124711;23;20006;-96
2023/06/15 11:04:52;;;;;;;6.93;1.90;;;;;;;34.55;23.73;100964.78;6095133;23;20006;-96
2023/06/15 11:07:28;;;;;;;4.68;1.80;;;;;;;33.97;24.00;100963.69;6121467;23;20009;-96
2023/06/15 11:09:57;;;;;;;3.70;2.40;;;;;;;34.17;22.97;100957.22;6123976;23;20010;-96
2023/06/15 11:12:39;;;;;;;10.27;2.40;;;;;;;34.62;23.05;100973.53;6098142;23;20029;-96
2023/06/15 11:15:06;;;;;;;3.92;2.38;;;;;;;33.46;22.81;100951.66;6127273;23;20005;-96
2023/06/15 11:17:58;;;;;;;5.57;2.25;;;;;;;34.81;24.50;100957.31;6136240;23;20010;-95
2023/06/15 12:04:33;;;;;;;5.03;1.98;;;;;;;36.18;23.37;100924.09;6182497;23;20025;-96
2023/06/15 12:07:04;;;;;;;4.75;2.42;;;;;;;35.30;22.06;100926.38;6282747;22;20032;-96
2023/06/15 12:09:31;;;;;;;3.33;2.30;;;;;;;35.66;22.64;100926.22;6166574;22;20100;-96
2023/06/15 12:12:10;;;;;;;6.20;2.33;;;;;;;35.68;23.58;100930.28;6311284;22;20028;-96
2023/06/15 12:15:03;;;;;;;6.95;2.30;;;;;;;36.25;22.04;100925.81;6205151;22;20017;-94
2023/06/15 12:17:34;;;;;;;3.10;2.00;;;;;;;35.60;22.58;100933.34;6270372;22;20021;-96
2023/06/15 12:25:41;;;;;;;9.25;2.83;;;;;;;35.51;23.83;100913.31;6200092;23;20343;-96
2023/06/15 12:28:17;;;;;;;7.93;2.40;;;;;;;35.33;22.87;100907.09;6290349;22;20012;-96
2023/06/15 12:30:47;;;;;;;9.20;2.47;;;;;;;35.12;22.39;100910.47;6296064;22;20008;-96
2023/06/15 12:33:29;;;;;;;12.95;2.50;;;;;;;34.32;23.36;100917.38;6288390;22;20001;-96